sensor_id;sensor_type;location;lat;lon;timestamp;pressure;altitude;pressure_sealevel;temperature;humidity
36598;BME280;22607;49.550;11.940;2024-03-08T00:00:11;97026.56;;;1.17;100.00
36598;BME280;22607;49.550;11.940;2024-03-08T00:02:45;97017.66;;;1.09;100.00
36598;BME280;22607;49.550;11.940;2024-03-08T00:05:14;97022.84;;;1.09;100.00
36598;BME280;22607;49.550;11.940;2024-03-08T00:07:42;97022.28;;;1.16;100.00
36598;BME280;22607;49.550;11.940;2024-03-08T00:10:11;97001.44;;;1.07;100.00
36598;BME280;22607;49.550;11.940;2024-03-08T00:12:42;97009.28;;;1.05;100.00
36598;BME280;22607;49.550;11.940;2024-03-08T00:15:13;97001.44;;;1.07;100.00
36598;BME280;22607;49.550;11.940;2024-03-08T00:17:43;97015.31;;;1.06;100.00
36598;BME280;22607;49.550;11.940;2024-03-08T00:20:11;97012.72;;;1.06;100.00
36598;BME280;22607;49.550;11.940;2024-03-08T00:22:38;97021.09;;;1.09;100.00
36598;BME280;22607;49.550;11.940;2024-03-08T00:25:08;97005.31;;;0.88;100.00
36598;BME280;22607;49.550;11.940;2024-03-08T00:27:42;97008.41;;;0.93;100.00
36598;BME280;22607;49.550;11.940;2024-03-08T00:30:16;97006.81;;;1.03;100.00
36598;BME280;22607;49.550;11.940;2024-03-08T00:32:45;96986.97;;;0.91;100.00
36598;BME280;22607;49.550;11.940;2024-03-08T00:35:13;96993.81;;;0.92;100.00
36598;BME280;22607;49.550;11.940;2024-03-08T00:37:40;96997.41;;;1.02;100.00
36598;BME280;22607;49.550;11.940;2024-03-08T00:40:14;96982.97;;;0.87;100.00
36598;BME280;22607;49.550;11.940;2024-03-08T00:42:41;96980.25;;;0.88;100.00
36598;BME280;22607;49.550;11.940;2024-03-08T00:45:10;96971.59;;;0.76;100.00
36598;BME280;22607;49.550;11.940;2024-03-08T00:47:37;96978.31;;;0.92;100.00
36598;BME280;22607;49.550;11.940;2024-03-08T00:50:05;96966.25;;;0.67;100.00
36598;BME280;22607;49.550;11.940;2024-03-08T00:52:32;96977.47;;;0.91;100.00
36598;BME280;22607;49.550;11.940;2024-03-08T00:55:01;96965.38;;;0.92;100.00
36598;BME280;22607;49.550;11.940;2024-03-08T00:57:28;96955.59;;;0.71;100.00
36598;BME280;22607;49.550;11.940;2024-03-08T00:59:56;96970.75;;;0.89;100.00
36598;BME280;22607;49.550;11.940;2024-03-08T01:02:24;96968.81;;;0.80;100.00
36598;BME280;22607;49.550;11.940;2024-03-08T01:04:51;96961.59;;;0.72;100.00
36598;BME280;22607;49.550;11.940;2024-03-08T01:07:18;96962.13;;;0.64;100.00
36598;BME280;22607;49.550;11.940;2024-03-08T01:09:45;96961.09;;;0.67;100.00
36598;BME280;22607;49.550;11.940;2024-03-08T01:12:13;96964.81;;;0.62;100.00
36598;BME280;22607;49.550;11.940;2024-03-08T01:14:41;96955.28;;;0.63;100.00
36598;BME280;22607;49.550;11.940;2024-03-08T01:17:08;96959.66;;;0.62;100.00
36598;BME280;22607;49.550;11.940;2024-03-08T01:19:36;96952.94;;;0.60;100.00
36598;BME280;22607;49.550;11.940;2024-03-08T01:22:03;96948.50;;;0.49;100.00
36598;BME280;22607;49.550;11.940;2024-03-08T01:24:30;96952.44;;;0.55;100.00
36598;BME280;22607;49.550;11.940;2024-03-08T01:26:57;96937.72;;;0.55;100.00
36598;BME280;22607;49.550;11.940;2024-03-08T01:29:24;96919.38;;;0.47;100.00
36598;BME280;22607;49.550;11.940;2024-03-08T01:31:53;96926.41;;;0.32;100.00
36598;BME280;22607;49.550;11.940;2024-03-08T01:34:20;96920.81;;;0.38;100.00
36598;BME280;22607;49.550;11.940;2024-03-08T01:36:47;96923.19;;;0.41;100.00
36598;BME280;22607;49.550;11.940;2024-03-08T01:39:14;96919.28;;;0.35;100.00
36598;BME280;22607;49.550;11.940;2024-03-08T01:41:42;96907.38;;;0.33;100.00
36598;BME280;22607;49.550;11.940;2024-03-08T01:44:09;96915.84;;;0.35;100.00
36598;BME280;22607;49.550;11.940;2024-03-08T01:46:37;96926.50;;;0.30;100.00
36598;BME280;22607;49.550;11.940;2024-03-08T01:49:04;96914.84;;;0.37;100.00
36598;BME280;22607;49.550;11.940;2024-03-08T01:51:31;96906.16;;;0.25;100.00
36598;BME280;22607;49.550;11.940;2024-03-08T01:54:00;96902.13;;;0.34;100.00
36598;BME280;22607;49.550;11.940;2024-03-08T01:56:28;96901.75;;;0.15;100.00
36598;BME280;22607;49.550;11.940;2024-03-08T01:58:55;96904.84;;;0.20;100.00
36598;BME280;22607;49.550;11.940;2024-03-08T02:01:23;96896.88;;;0.10;100.00
36598;BME280;22607;49.550;11.940;2024-03-08T02:03:51;96899.66;;;0.07;100.00
36598;BME280;22607;49.550;11.940;2024-03-08T02:06:19;96872.00;;;-0.04;100.00
36598;BME280;22607;49.550;11.940;2024-03-08T02:08:46;96895.03;;;0.12;100.00
36598;BME280;22607;49.550;11.940;2024-03-08T02:11:14;96896.16;;;0.08;100.00
36598;BME280;22607;49.550;11.940;2024-03-08T02:13:42;96900.41;;;-0.04;100.00
36598;BME280;22607;49.550;11.940;2024-03-08T02:16:10;96889.63;;;0.15;100.00
36598;BME280;22607;49.550;11.940;2024-03-08T02:18:37;96894.22;;;-0.02;100.00
36598;BME280;22607;49.550;11.940;2024-03-08T02:21:06;96879.03;;;-0.06;100.00
36598;BME280;22607;49.550;11.940;2024-03-08T02:23:36;96889.88;;;0.12;100.00
36598;BME280;22607;49.550;11.940;2024-03-08T02:26:04;96893.28;;;-0.01;100.00
36598;BME280;22607;49.550;11.940;2024-03-08T02:28:31;96890.50;;;0.03;100.00
36598;BME280;22607;49.550;11.940;2024-03-08T02:30:58;96888.63;;;0.05;100.00
36598;BME280;22607;49.550;11.940;2024-03-08T02:33:28;96871.69;;;0.01;100.00
36598;BME280;22607;49.550;11.940;2024-03-08T02:35:56;96881.31;;;-0.02;100.00
36598;BME280;22607;49.550;11.940;2024-03-08T02:38:23;96887.78;;;0.04;100.00
36598;BME280;22607;49.550;11.940;2024-03-08T02:40:53;96887.59;;;-0.06;100.00
36598;BME280;22607;49.550;11.940;2024-03-08T02:43:22;96869.72;;;-0.09;100.00
36598;BME280;22607;49.550;11.940;2024-03-08T02:45:50;96872.41;;;-0.10;100.00
36598;BME280;22607;49.550;11.940;2024-03-08T02:48:19;96886.75;;;-0.06;100.00
36598;BME280;22607;49.550;11.940;2024-03-08T02:50:46;96877.47;;;-0.09;100.00
36598;BME280;22607;49.550;11.940;2024-03-08T02:53:13;96877.66;;;-0.12;100.00
36598;BME280;22607;49.550;11.940;2024-03-08T02:55:41;96886.75;;;-0.06;100.00
36598;BME280;22607;49.550;11.940;2024-03-08T02:58:09;96881.28;;;-0.15;100.00
36598;BME280;22607;49.550;11.940;2024-03-08T03:00:38;96876.03;;;0.00;100.00
36598;BME280;22607;49.550;11.940;2024-03-08T03:03:07;96859.41;;;-0.22;100.00
36598;BME280;22607;49.550;11.940;2024-03-08T03:05:35;96865.50;;;-0.10;100.00
36598;BME280;22607;49.550;11.940;2024-03-08T03:08:03;96871.47;;;0.04;100.00
36598;BME280;22607;49.550;11.940;2024-03-08T03:10:36;96851.97;;;-0.01;100.00
36598;BME280;22607;49.550;11.940;2024-03-08T03:13:03;96860.09;;;0.19;100.00
36598;BME280;22607;49.550;11.940;2024-03-08T03:15:35;96865.59;;;0.15;100.00
36598;BME280;22607;49.550;11.940;2024-03-08T03:18:03;96844.19;;;0.12;100.00
36598;BME280;22607;49.550;11.940;2024-03-08T03:20:35;96868.25;;;0.13;100.00
36598;BME280;22607;49.550;11.940;2024-03-08T03:23:11;96857.91;;;0.26;100.00
36598;BME280;22607;49.550;11.940;2024-03-08T03:25:42;96853.31;;;0.05;100.00
36598;BME280;22607;49.550;11.940;2024-03-08T03:28:09;96853.81;;;0.10;100.00
36598;BME280;22607;49.550;11.940;2024-03-08T03:30:38;96863.00;;;0.02;100.00
36598;BME280;22607;49.550;11.940;2024-03-08T03:33:08;96841.44;;;0.03;100.00
36598;BME280;22607;49.550;11.940;2024-03-08T03:35:35;96851.63;;;0.04;100.00
36598;BME280;22607;49.550;11.940;2024-03-08T03:38:04;96843.78;;;0.06;100.00
36598;BME280;22607;49.550;11.940;2024-03-08T03:40:38;96854.28;;;0.29;100.00
36598;BME280;22607;49.550;11.940;2024-03-08T03:43:08;96842.63;;;0.10;100.00
36598;BME280;22607;49.550;11.940;2024-03-08T03:45:39;96853.28;;;0.18;100.00
36598;BME280;22607;49.550;11.940;2024-03-08T03:48:08;96845.66;;;0.04;100.00
36598;BME280;22607;49.550;11.940;2024-03-08T03:50:40;96826.63;;;0.05;100.00
36598;BME280;22607;49.550;11.940;2024-03-08T03:53:07;96837.16;;;0.02;100.00
36598;BME280;22607;49.550;11.940;2024-03-08T03:55:37;96832.94;;;0.01;100.00
36598;BME280;22607;49.550;11.940;2024-03-08T03:58:07;96848.13;;;0.05;100.00
36598;BME280;22607;49.550;11.940;2024-03-08T04:00:34;96852.63;;;0.28;100.00
36598;BME280;22607;49.550;11.940;2024-03-08T04:03:02;96842.00;;;0.19;100.00
36598;BME280;22607;49.550;11.940;2024-03-08T04:05:29;96831.59;;;0.08;100.00
36598;BME280;22607;49.550;11.940;2024-03-08T04:07:56;96843.13;;;0.15;100.00
36598;BME280;22607;49.550;11.940;2024-03-08T04:10:25;96831.00;;;-0.09;100.00
36598;BME280;22607;49.550;11.940;2024-03-08T04:12:52;96827.78;;;0.01;100.00
36598;BME280;22607;49.550;11.940;2024-03-08T04:15:20;96825.63;;;-0.06;100.00
36598;BME280;22607;49.550;11.940;2024-03-08T04:17:47;96838.53;;;-0.06;100.00
36598;BME280;22607;49.550;11.940;2024-03-08T04:20:14;96838.44;;;-0.04;100.00
36598;BME280;22607;49.550;11.940;2024-03-08T04:22:47;96834.72;;;-0.13;100.00
36598;BME280;22607;49.550;11.940;2024-03-08T04:25:18;96816.25;;;-0.07;100.00
36598;BME280;22607;49.550;11.940;2024-03-08T04:27:46;96832.75;;;0.04;100.00
36598;BME280;22607;49.550;11.940;2024-03-08T04:30:15;96834.31;;;-0.07;100.00
36598;BME280;22607;49.550;11.940;2024-03-08T04:32:42;96829.44;;;0.02;100.00
36598;BME280;22607;49.550;11.940;2024-03-08T04:35:09;96794.66;;;-0.32;100.00
36598;BME280;22607;49.550;11.940;2024-03-08T04:37:39;96819.22;;;-0.13;100.00
36598;BME280;22607;49.550;11.940;2024-03-08T04:40:08;96808.91;;;-0.13;100.00
36598;BME280;22607;49.550;11.940;2024-03-08T04:42:37;96805.97;;;0.05;100.00
36598;BME280;22607;49.550;11.940;2024-03-08T04:45:05;96825.41;;;0.10;100.00
36598;BME280;22607;49.550;11.940;2024-03-08T04:47:32;96803.41;;;0.05;100.00
36598;BME280;22607;49.550;11.940;2024-03-08T04:49:59;96819.03;;;0.28;100.00
36598;BME280;22607;49.550;11.940;2024-03-08T04:52:27;96808.50;;;0.31;100.00
36598;BME280;22607;49.550;11.940;2024-03-08T04:54:55;96807.31;;;0.35;100.00
36598;BME280;22607;49.550;11.940;2024-03-08T04:57:22;96806.13;;;0.28;100.00
36598;BME280;22607;49.550;11.940;2024-03-08T04:59:49;96819.41;;;0.10;100.00
36598;BME280;22607;49.550;11.940;2024-03-08T05:02:16;96819.22;;;0.00;100.00
36598;BME280;22607;49.550;11.940;2024-03-08T05:04:44;96796.50;;;0.05;100.00
36598;BME280;22607;49.550;11.940;2024-03-08T05:07:11;96807.84;;;0.03;100.00
36598;BME280;22607;49.550;11.940;2024-03-08T05:09:38;96808.75;;;0.02;100.00
36598;BME280;22607;49.550;11.940;2024-03-08T05:12:07;96804.63;;;-0.01;100.00
36598;BME280;22607;49.550;11.940;2024-03-08T05:14:34;96802.69;;;0.03;100.00
36598;BME280;22607;49.550;11.940;2024-03-08T05:17:02;96801.03;;;0.02;100.00
36598;BME280;22607;49.550;11.940;2024-03-08T05:19:29;96800.78;;;0.18;100.00
36598;BME280;22607;49.550;11.940;2024-03-08T05:22:00;96789.66;;;0.04;100.00
36598;BME280;22607;49.550;11.940;2024-03-08T05:24:28;96789.75;;;0.16;100.00
36598;BME280;22607;49.550;11.940;2024-03-08T05:26:57;96798.47;;;0.26;100.00
36598;BME280;22607;49.550;11.940;2024-03-08T05:29:24;96783.84;;;0.13;100.00
36598;BME280;22607;49.550;11.940;2024-03-08T05:31:51;96793.53;;;0.23;100.00
36598;BME280;22607;49.550;11.940;2024-03-08T05:34:19;96796.16;;;0.10;100.00
36598;BME280;22607;49.550;11.940;2024-03-08T05:36:48;96790.97;;;0.10;100.00
36598;BME280;22607;49.550;11.940;2024-03-08T05:39:19;96797.38;;;0.17;100.00
36598;BME280;22607;49.550;11.940;2024-03-08T05:41:47;96793.84;;;0.18;100.00
36598;BME280;22607;49.550;11.940;2024-03-08T05:44:15;96788.19;;;0.13;100.00
36598;BME280;22607;49.550;11.940;2024-03-08T05:46:47;96790.34;;;0.19;100.00
36598;BME280;22607;49.550;11.940;2024-03-08T05:49:14;96791.28;;;0.18;100.00
36598;BME280;22607;49.550;11.940;2024-03-08T05:51:43;96776.94;;;0.14;100.00
36598;BME280;22607;49.550;11.940;2024-03-08T05:54:18;96779.06;;;0.20;100.00
36598;BME280;22607;49.550;11.940;2024-03-08T05:56:49;96781.53;;;0.22;100.00
36598;BME280;22607;49.550;11.940;2024-03-08T05:59:19;96775.88;;;0.17;100.00
36598;BME280;22607;49.550;11.940;2024-03-08T06:01:46;96784.63;;;0.27;100.00
36598;BME280;22607;49.550;11.940;2024-03-08T06:04:15;96780.00;;;0.19;100.00
36598;BME280;22607;49.550;11.940;2024-03-08T06:06:44;96777.59;;;0.29;100.00
36598;BME280;22607;49.550;11.940;2024-03-08T06:09:19;96779.63;;;0.37;100.00
36598;BME280;22607;49.550;11.940;2024-03-08T06:11:56;96783.94;;;0.49;100.00
36598;BME280;22607;49.550;11.940;2024-03-08T06:14:26;96763.59;;;0.45;100.00
36598;BME280;22607;49.550;11.940;2024-03-08T06:16:53;96755.34;;;0.39;100.00
36598;BME280;22607;49.550;11.940;2024-03-08T06:19:21;96773.44;;;0.64;100.00
36598;BME280;22607;49.550;11.940;2024-03-08T06:21:48;96774.13;;;0.66;100.00
36598;BME280;22607;49.550;11.940;2024-03-08T06:24:15;96765.22;;;0.70;100.00
36598;BME280;22607;49.550;11.940;2024-03-08T06:26:42;96764.53;;;0.80;100.00
36598;BME280;22607;49.550;11.940;2024-03-08T06:29:09;96742.06;;;0.69;100.00
36598;BME280;22607;49.550;11.940;2024-03-08T06:31:38;96742.44;;;0.75;100.00
36598;BME280;22607;49.550;11.940;2024-03-08T06:34:09;96769.31;;;1.09;100.00
36598;BME280;22607;49.550;11.940;2024-03-08T06:36:36;96728.53;;;1.35;100.00
36598;BME280;22607;49.550;11.940;2024-03-08T06:39:05;96764.44;;;1.74;100.00
36598;BME280;22607;49.550;11.940;2024-03-08T06:41:40;96736.56;;;1.78;100.00
36598;BME280;22607;49.550;11.940;2024-03-08T06:44:07;96753.34;;;2.06;100.00
36598;BME280;22607;49.550;11.940;2024-03-08T06:46:35;96761.63;;;2.44;100.00
36598;BME280;22607;49.550;11.940;2024-03-08T06:49:02;96735.16;;;2.29;100.00
36598;BME280;22607;49.550;11.940;2024-03-08T06:51:34;96749.97;;;2.71;100.00
36598;BME280;22607;49.550;11.940;2024-03-08T06:54:01;96757.56;;;2.84;100.00
36598;BME280;22607;49.550;11.940;2024-03-08T06:56:36;96749.84;;;3.37;100.00
36598;BME280;22607;49.550;11.940;2024-03-08T06:59:03;96733.69;;;3.64;100.00
36598;BME280;22607;49.550;11.940;2024-03-08T07:01:33;96734.16;;;3.79;97.25
36598;BME280;22607;49.550;11.940;2024-03-08T07:04:06;96730.97;;;3.76;96.71
36598;BME280;22607;49.550;11.940;2024-03-08T07:06:33;96751.13;;;4.44;91.27
36598;BME280;22607;49.550;11.940;2024-03-08T07:09:02;96733.03;;;4.43;89.47
36598;BME280;22607;49.550;11.940;2024-03-08T07:11:30;96746.34;;;4.79;88.16
36598;BME280;22607;49.550;11.940;2024-03-08T07:13:57;96740.84;;;5.02;85.17
36598;BME280;22607;49.550;11.940;2024-03-08T07:16:28;96738.22;;;5.12;81.78
36598;BME280;22607;49.550;11.940;2024-03-08T07:18:58;96710.25;;;5.14;81.54
36598;BME280;22607;49.550;11.940;2024-03-08T07:21:29;96710.25;;;5.14;80.30
36598;BME280;22607;49.550;11.940;2024-03-08T07:23:57;96707.44;;;5.45;79.52
36598;BME280;22607;49.550;11.940;2024-03-08T07:26:30;96734.13;;;5.85;77.83
36598;BME280;22607;49.550;11.940;2024-03-08T07:29:00;96728.25;;;6.11;76.13
36598;BME280;22607;49.550;11.940;2024-03-08T07:31:31;96729.31;;;6.37;73.10
36598;BME280;22607;49.550;11.940;2024-03-08T07:34:04;96730.28;;;6.17;72.46
36598;BME280;22607;49.550;11.940;2024-03-08T07:36:37;96732.44;;;6.22;72.92
36598;BME280;22607;49.550;11.940;2024-03-08T07:39:06;96727.25;;;6.40;72.54
36598;BME280;22607;49.550;11.940;2024-03-08T07:41:39;96679.16;;;6.25;70.49
36598;BME280;22607;49.550;11.940;2024-03-08T07:44:12;96715.19;;;6.57;70.02
36598;BME280;22607;49.550;11.940;2024-03-08T07:46:41;96689.63;;;6.43;70.98
36598;BME280;22607;49.550;11.940;2024-03-08T07:49:13;96718.00;;;6.82;68.77
36598;BME280;22607;49.550;11.940;2024-03-08T07:51:43;96717.78;;;6.57;69.97
36598;BME280;22607;49.550;11.940;2024-03-08T07:54:13;96710.28;;;6.81;69.65
36598;BME280;22607;49.550;11.940;2024-03-08T07:56:40;96700.47;;;7.19;67.83
36598;BME280;22607;49.550;11.940;2024-03-08T07:59:09;96704.22;;;7.25;66.41
36598;BME280;22607;49.550;11.940;2024-03-08T08:01:38;96702.91;;;7.56;65.88
36598;BME280;22607;49.550;11.940;2024-03-08T08:04:09;96701.03;;;7.31;69.19
36598;BME280;22607;49.550;11.940;2024-03-08T08:06:39;96699.63;;;7.88;65.58
36598;BME280;22607;49.550;11.940;2024-03-08T08:09:08;96698.56;;;8.08;64.08
36598;BME280;22607;49.550;11.940;2024-03-08T08:11:41;96701.22;;;7.38;64.61
36598;BME280;22607;49.550;11.940;2024-03-08T08:14:10;96701.22;;;7.73;63.71
36598;BME280;22607;49.550;11.940;2024-03-08T08:16:37;96689.50;;;7.51;64.44
36598;BME280;22607;49.550;11.940;2024-03-08T08:19:11;96692.81;;;8.04;63.48
36598;BME280;22607;49.550;11.940;2024-03-08T08:21:41;96703.00;;;7.38;64.52
36598;BME280;22607;49.550;11.940;2024-03-08T08:24:09;96688.13;;;7.65;63.71
36598;BME280;22607;49.550;11.940;2024-03-08T08:26:41;96695.09;;;7.99;62.06
36598;BME280;22607;49.550;11.940;2024-03-08T08:29:07;96685.81;;;8.21;61.62
36598;BME280;22607;49.550;11.940;2024-03-08T08:31:35;96663.69;;;7.99;61.70
36598;BME280;22607;49.550;11.940;2024-03-08T08:34:02;96677.09;;;7.87;62.37
36598;BME280;22607;49.550;11.940;2024-03-08T08:36:32;96662.06;;;7.98;61.67
36598;BME280;22607;49.550;11.940;2024-03-08T08:38:59;96686.63;;;8.22;60.97
36598;BME280;22607;49.550;11.940;2024-03-08T08:41:27;96658.81;;;8.12;61.48
36598;BME280;22607;49.550;11.940;2024-03-08T08:44:02;96679.13;;;8.35;60.54
36598;BME280;22607;49.550;11.940;2024-03-08T08:46:33;96663.44;;;8.52;60.55
36598;BME280;22607;49.550;11.940;2024-03-08T08:49:10;96662.13;;;9.14;59.68
36598;BME280;22607;49.550;11.940;2024-03-08T08:51:49;96665.66;;;9.38;58.77
36598;BME280;22607;49.550;11.940;2024-03-08T08:54:17;96636.78;;;8.90;59.56
36598;BME280;22607;49.550;11.940;2024-03-08T08:56:45;96632.53;;;8.97;58.52
36598;BME280;22607;49.550;11.940;2024-03-08T08:59:11;96670.78;;;9.15;58.67
36598;BME280;22607;49.550;11.940;2024-03-08T09:01:46;96638.84;;;9.19;57.39
36598;BME280;22607;49.550;11.940;2024-03-08T09:04:20;96627.50;;;8.54;59.54
36598;BME280;22607;49.550;11.940;2024-03-08T09:06:48;96654.00;;;8.59;60.11
36598;BME280;22607;49.550;11.940;2024-03-08T09:09:16;96622.38;;;8.94;58.03
36598;BME280;22607;49.550;11.940;2024-03-08T09:11:43;96627.88;;;9.16;57.11
36598;BME280;22607;49.550;11.940;2024-03-08T09:14:13;96597.09;;;9.10;57.40
36598;BME280;22607;49.550;11.940;2024-03-08T09:16:41;96621.22;;;8.97;57.85
36598;BME280;22607;49.550;11.940;2024-03-08T09:19:08;96632.78;;;9.19;57.47
36598;BME280;22607;49.550;11.940;2024-03-08T09:21:38;96637.19;;;9.98;57.67
36598;BME280;22607;49.550;11.940;2024-03-08T09:24:07;96634.16;;;9.87;58.23
36598;BME280;22607;49.550;11.940;2024-03-08T09:26:34;96633.16;;;9.88;55.50
36598;BME280;22607;49.550;11.940;2024-03-08T09:29:00;96624.13;;;9.90;55.67
36598;BME280;22607;49.550;11.940;2024-03-08T09:31:28;96624.44;;;10.19;56.28
36598;BME280;22607;49.550;11.940;2024-03-08T09:33:55;96613.66;;;9.82;56.45
36598;BME280;22607;49.550;11.940;2024-03-08T09:36:22;96621.00;;;9.95;56.15
36598;BME280;22607;49.550;11.940;2024-03-08T09:38:52;96623.41;;;9.73;55.24
36598;BME280;22607;49.550;11.940;2024-03-08T09:41:21;96619.50;;;9.61;56.14
36598;BME280;22607;49.550;11.940;2024-03-08T09:43:50;96620.16;;;9.94;54.91
36598;BME280;22607;49.550;11.940;2024-03-08T09:46:19;96614.56;;;10.21;55.58
36598;BME280;22607;49.550;11.940;2024-03-08T09:48:49;96602.78;;;10.17;54.38
36598;BME280;22607;49.550;11.940;2024-03-08T09:51:16;96618.13;;;9.81;53.66
36598;BME280;22607;49.550;11.940;2024-03-08T09:53:44;96583.41;;;10.18;53.48
36598;BME280;22607;49.550;11.940;2024-03-08T09:56:14;96615.22;;;10.00;54.00
36598;BME280;22607;49.550;11.940;2024-03-08T09:58:42;96603.34;;;10.12;53.45
36598;BME280;22607;49.550;11.940;2024-03-08T10:01:38;96601.63;;;10.19;54.71
36598;BME280;22607;49.550;11.940;2024-03-08T10:04:07;96622.41;;;10.29;54.43
36598;BME280;22607;49.550;11.940;2024-03-08T10:06:42;96597.91;;;10.60;53.29
36598;BME280;22607;49.550;11.940;2024-03-08T10:09:10;96606.41;;;10.16;52.99
36598;BME280;22607;49.550;11.940;2024-03-08T10:11:40;96584.00;;;10.05;53.09
36598;BME280;22607;49.550;11.940;2024-03-08T10:14:10;96614.13;;;10.17;52.11
36598;BME280;22607;49.550;11.940;2024-03-08T10:16:41;96599.66;;;10.45;52.41
36598;BME280;22607;49.550;11.940;2024-03-08T10:19:11;96592.59;;;9.98;54.00
36598;BME280;22607;49.550;11.940;2024-03-08T10:21:50;96585.53;;;10.22;54.13
36598;BME280;22607;49.550;11.940;2024-03-08T10:24:22;96588.22;;;9.91;54.63
36598;BME280;22607;49.550;11.940;2024-03-08T10:26:53;96582.38;;;10.50;53.58
36598;BME280;22607;49.550;11.940;2024-03-08T10:29:21;96587.66;;;10.66;52.06
36598;BME280;22607;49.550;11.940;2024-03-08T10:31:48;96579.13;;;10.48;53.20
36598;BME280;22607;49.550;11.940;2024-03-08T10:34:17;96588.03;;;10.16;53.75
36598;BME280;22607;49.550;11.940;2024-03-08T10:36:48;96564.78;;;9.89;53.39
36598;BME280;22607;49.550;11.940;2024-03-08T10:39:23;96555.84;;;10.45;52.66
36598;BME280;22607;49.550;11.940;2024-03-08T10:42:03;96585.59;;;10.14;51.58
36598;BME280;22607;49.550;11.940;2024-03-08T10:47:06;96578.09;;;10.11;51.35
36598;BME280;22607;49.550;11.940;2024-03-08T10:52:36;96574.63;;;10.10;53.04
36598;BME280;22607;49.550;11.940;2024-03-08T10:55:07;96565.06;;;10.18;53.56
36598;BME280;22607;49.550;11.940;2024-03-08T10:57:42;96572.47;;;10.14;54.12
36598;BME280;22607;49.550;11.940;2024-03-08T11:00:11;96557.47;;;10.46;54.43
36598;BME280;22607;49.550;11.940;2024-03-08T11:02:44;96536.69;;;10.36;52.55
36598;BME280;22607;49.550;11.940;2024-03-08T11:05:40;96536.97;;;10.03;53.82
36598;BME280;22607;49.550;11.940;2024-03-08T11:08:18;96547.97;;;10.22;54.23
36598;BME280;22607;49.550;11.940;2024-03-08T11:16:09;96553.22;;;10.45;54.21
36598;BME280;22607;49.550;11.940;2024-03-08T11:18:37;96523.38;;;10.76;54.07
36598;BME280;22607;49.550;11.940;2024-03-08T11:21:08;96547.66;;;10.79;54.13
36598;BME280;22607;49.550;11.940;2024-03-08T11:23:39;96515.28;;;10.93;53.57
36598;BME280;22607;49.550;11.940;2024-03-08T11:26:20;96532.88;;;10.62;51.86
36598;BME280;22607;49.550;11.940;2024-03-08T11:28:51;96514.69;;;10.91;52.81
36598;BME280;22607;49.550;11.940;2024-03-08T11:31:24;96520.09;;;10.59;53.13
36598;BME280;22607;49.550;11.940;2024-03-08T11:33:53;96491.28;;;10.66;54.67
36598;BME280;22607;49.550;11.940;2024-03-08T11:36:24;96512.44;;;9.96;51.95
36598;BME280;22607;49.550;11.940;2024-03-08T11:38:52;96498.72;;;10.09;53.40
36598;BME280;22607;49.550;11.940;2024-03-08T11:52:33;96477.34;;;10.50;52.46
36598;BME280;22607;49.550;11.940;2024-03-08T11:55:04;96476.53;;;10.80;52.41
36598;BME280;22607;49.550;11.940;2024-03-08T11:57:33;96471.63;;;10.62;53.21
36598;BME280;22607;49.550;11.940;2024-03-08T12:00:01;96462.75;;;10.78;53.34
36598;BME280;22607;49.550;11.940;2024-03-08T12:02:36;96467.78;;;10.58;53.55
36598;BME280;22607;49.550;11.940;2024-03-08T12:05:06;96459.06;;;10.57;52.00
36598;BME280;22607;49.550;11.940;2024-03-08T12:07:33;96445.09;;;10.42;53.20
36598;BME280;22607;49.550;11.940;2024-03-08T12:10:21;96443.31;;;10.72;53.60
36598;BME280;22607;49.550;11.940;2024-03-08T12:12:53;96444.75;;;10.60;52.76
36598;BME280;22607;49.550;11.940;2024-03-08T12:15:22;96445.88;;;10.27;53.14
36598;BME280;22607;49.550;11.940;2024-03-08T12:18:03;96440.03;;;10.70;52.81
36598;BME280;22607;49.550;11.940;2024-03-08T12:23:35;96413.34;;;10.67;51.28
36598;BME280;22607;49.550;11.940;2024-03-08T12:26:14;96430.28;;;10.64;52.37
36598;BME280;22607;49.550;11.940;2024-03-08T12:28:43;96423.22;;;10.49;51.34
36598;BME280;22607;49.550;11.940;2024-03-08T12:31:16;96410.88;;;10.20;50.99
36598;BME280;22607;49.550;11.940;2024-03-08T12:33:54;96428.78;;;10.31;50.86
36598;BME280;22607;49.550;11.940;2024-03-08T12:36:23;96430.88;;;10.36;51.77
36598;BME280;22607;49.550;11.940;2024-03-08T12:38:50;96424.22;;;10.48;50.80
36598;BME280;22607;49.550;11.940;2024-03-08T12:41:20;96410.22;;;10.33;51.11
36598;BME280;22607;49.550;11.940;2024-03-08T12:43:48;96414.13;;;10.37;51.74
36598;BME280;22607;49.550;11.940;2024-03-08T12:46:19;96408.16;;;10.43;50.99
36598;BME280;22607;49.550;11.940;2024-03-08T12:48:50;96408.34;;;10.42;52.54
36598;BME280;22607;49.550;11.940;2024-03-08T12:51:18;96398.56;;;10.35;50.85
36598;BME280;22607;49.550;11.940;2024-03-08T12:53:45;96391.94;;;10.40;51.51
36598;BME280;22607;49.550;11.940;2024-03-08T12:56:28;96399.22;;;10.37;52.56
36598;BME280;22607;49.550;11.940;2024-03-08T12:58:55;96385.16;;;10.30;53.56
36598;BME280;22607;49.550;11.940;2024-03-08T13:01:23;96386.69;;;10.24;53.39
36598;BME280;22607;49.550;11.940;2024-03-08T13:03:53;96394.50;;;10.63;52.91
36598;BME280;22607;49.550;11.940;2024-03-08T13:06:22;96382.25;;;10.70;52.34
36598;BME280;22607;49.550;11.940;2024-03-08T13:08:51;96387.44;;;10.33;52.69
36598;BME280;22607;49.550;11.940;2024-03-08T13:11:32;96378.09;;;10.01;54.45
36598;BME280;22607;49.550;11.940;2024-03-08T13:14:04;96376.22;;;10.09;54.61
36598;BME280;22607;49.550;11.940;2024-03-08T13:16:34;96388.25;;;10.49;52.77
36598;BME280;22607;49.550;11.940;2024-03-08T13:19:03;96359.66;;;10.39;53.00
36598;BME280;22607;49.550;11.940;2024-03-08T13:21:33;96384.19;;;10.46;53.11
36598;BME280;22607;49.550;11.940;2024-03-08T13:24:00;96363.50;;;10.43;52.31
36598;BME280;22607;49.550;11.940;2024-03-08T13:26:28;96371.13;;;10.38;52.05